Time;durP1;ratioP1;P1;durP2;ratioP2;P2;SDS_P1;SDS_P2;PMS_P1;PMS_P2;Temp;Humidity;BMP_temperature;BMP_pressure;BME280_temperature;BME280_humidity;BME280_pressure;Samples;Min_cycle;Max_cycle;Signal;HPM_P1;HPM_P2
2022/09/27 00:01:08;;;;;;;7.28;0.98;;;;;;;;;;5113528;28;20075;-66
2022/09/27 00:03:34;;;;;;;6.20;1.05;;;;;;;;;;5113829;28;20039;-66
2022/09/27 00:06:05;;;;;;;5.80;0.70;;;;;;;;;;5113432;28;20547;-66
2022/09/27 00:08:32;;;;;;;7.28;0.85;;;;;;;;;;5112985;28;20470;-66
2022/09/27 00:11:01;;;;;;;4.97;0.80;;;;;;;;;;5113543;28;20046;-66
2022/09/27 00:13:28;;;;;;;4.75;0.80;;;;;;;;;;5113656;28;20442;-66
2022/09/27 00:15:58;;;;;;;7.45;0.90;;;;;;;;;;5113202;28;20415;-66
2022/09/27 00:18:24;;;;;;;5.07;1.20;;;;;;;;;;5113277;28;20496;-66
2022/09/27 00:20:50;;;;;;;4.55;0.75;;;;;;;;;;5113120;28;20051;-66
2022/09/27 00:23:16;;;;;;;5.35;0.90;;;;;;;;;;5094344;28;20092;-66
2022/09/27 00:25:42;;;;;;;6.30;0.63;;;;;;;;;;5097841;28;20064;-66
2022/09/27 00:28:08;;;;;;;4.15;0.95;;;;;;;;;;5113219;28;20042;-66
2022/09/27 00:30:34;;;;;;;6.25;0.75;;;;;;;;;;5112887;28;20584;-66
2022/09/27 00:33:00;;;;;;;3.88;0.68;;;;;;;;;;5113301;28;20044;-66
2022/09/27 00:35:26;;;;;;;5.22;0.70;;;;;;;;;;5111727;28;20051;-66
2022/09/27 00:37:52;;;;;;;6.07;0.90;;;;;;;;;;5112641;28;20042;-66
2022/09/27 00:40:22;;;;;;;4.35;0.73;;;;;;;;;;5112513;28;20177;-66
2022/09/27 00:42:49;;;;;;;4.03;0.70;;;;;;;;;;5094504;28;20047;-66
2022/09/27 00:45:16;;;;;;;2.78;0.63;;;;;;;;;;5112622;28;20046;-66
2022/09/27 00:47:49;;;;;;;7.78;0.80;;;;;;;;;;5112706;28;20401;-66
2022/09/27 00:50:21;;;;;;;4.00;0.80;;;;;;;;;;5112981;28;20039;-66
2022/09/27 00:52:53;;;;;;;8.23;0.90;;;;;;;;;;5112599;28;20839;-66
2022/09/27 00:55:22;;;;;;;4.32;1.30;;;;;;;;;;5112633;28;20043;-66
2022/09/27 00:57:49;;;;;;;3.97;0.70;;;;;;;;;;5112713;28;20043;-66
2022/09/27 01:00:15;;;;;;;7.93;0.90;;;;;;;;;;5112390;28;20079;-66
2022/09/27 01:02:46;;;;;;;6.00;0.68;;;;;;;;;;5112579;28;20369;-66
2022/09/27 01:05:14;;;;;;;2.30;0.60;;;;;;;;;;5112018;28;20078;-66
2022/09/27 01:07:40;;;;;;;7.53;0.90;;;;;;;;;;5111975;28;20039;-66
2022/09/27 01:10:06;;;;;;;5.43;0.77;;;;;;;;;;5112198;28;20505;-66
2022/09/27 01:12:32;;;;;;;3.63;0.60;;;;;;;;;;5112283;28;20070;-66
2022/09/27 01:15:31;;;;;;;6.55;0.85;;;;;;;;;;5111917;28;20640;-66
2022/09/27 01:18:15;;;;;;;3.90;0.70;;;;;;;;;;5056058;28;20135;-66
2022/09/27 01:21:00;;;;;;;1.55;0.40;;;;;;;;;;5093720;28;20620;-66
2022/09/27 01:23:38;;;;;;;3.30;0.60;;;;;;;;;;5111618;28;20051;-66
2022/09/27 01:26:13;;;;;;;3.67;0.80;;;;;;;;;;5111929;28;20299;-66
2022/09/27 01:28:39;;;;;;;6.63;0.70;;;;;;;;;;5112258;28;20066;-66
2022/09/27 01:31:26;;;;;;;7.25;1.35;;;;;;;;;;5111855;28;20031;-66
2022/09/27 01:34:08;;;;;;;6.80;0.90;;;;;;;;;;5112052;28;20036;-66
2022/09/27 01:36:46;;;;;;;4.82;0.60;;;;;;;;;;5112066;28;20114;-66
2022/09/27 01:39:35;;;;;;;7.40;0.90;;;;;;;;;;5111522;28;20036;-66
2022/09/27 01:42:14;;;;;;;5.72;0.50;;;;;;;;;;5100839;28;20044;-66
2022/09/27 01:44:50;;;;;;;2.83;0.60;;;;;;;;;;5111528;28;20055;-66
2022/09/27 01:47:18;;;;;;;3.97;0.88;;;;;;;;;;5111939;28;20040;-66
2022/09/27 01:49:50;;;;;;;7.30;0.60;;;;;;;;;;5111613;28;20035;-66
2022/09/27 01:52:18;;;;;;;5.05;0.77;;;;;;;;;;5110532;28;20109;-66
2022/09/27 01:54:46;;;;;;;3.00;1.20;;;;;;;;;;5111773;28;20031;-66
2022/09/27 01:57:15;;;;;;;6.15;0.68;;;;;;;;;;5111661;28;20039;-66
2022/09/27 01:59:41;;;;;;;3.33;0.68;;;;;;;;;;5111011;28;20165;-66
2022/09/27 02:02:08;;;;;;;5.60;0.63;;;;;;;;;;5111507;28;20082;-66
2022/09/27 02:04:37;;;;;;;6.60;0.80;;;;;;;;;;5103249;28;20379;-66
2022/09/27 02:07:08;;;;;;;3.60;0.60;;;;;;;;;;5110851;28;20185;-66
2022/09/27 02:09:37;;;;;;;3.45;0.70;;;;;;;;;;5110962;28;20135;-66
2022/09/27 02:12:05;;;;;;;6.80;0.77;;;;;;;;;;5111263;28;20044;-66
2022/09/27 02:14:35;;;;;;;3.70;0.60;;;;;;;;;;5110944;28;20036;-66
2022/09/27 02:17:13;;;;;;;5.75;0.70;;;;;;;;;;5093240;28;20062;-66
2022/09/27 02:19:42;;;;;;;6.55;0.90;;;;;;;;;;5110924;28;20116;-66
2022/09/27 02:22:16;;;;;;;5.20;0.70;;;;;;;;;;5110831;28;20035;-66
2022/09/27 02:25:02;;;;;;;3.15;0.68;;;;;;;;;;5111165;28;20047;-66
2022/09/27 02:27:38;;;;;;;2.80;0.35;;;;;;;;;;5091065;28;20542;-66
2022/09/27 02:30:04;;;;;;;2.72;0.50;;;;;;;;;;5090448;28;20123;-66
2022/09/27 02:32:31;;;;;;;2.55;0.65;;;;;;;;;;5072570;28;20056;-66
2022/09/27 02:35:00;;;;;;;3.15;0.93;;;;;;;;;;5090749;28;20043;-66
2022/09/27 02:37:26;;;;;;;6.63;0.70;;;;;;;;;;5090195;28;20081;-66
2022/09/27 02:39:52;;;;;;;4.90;0.68;;;;;;;;;;5090741;28;20048;-66
2022/09/27 02:42:18;;;;;;;4.00;0.45;;;;;;;;;;5090735;28;20085;-66
2022/09/27 02:44:44;;;;;;;3.00;0.57;;;;;;;;;;5090426;28;20040;-66
2022/09/27 02:47:13;;;;;;;2.83;0.43;;;;;;;;;;5090693;28;20044;-66
2022/09/27 02:49:43;;;;;;;2.63;0.50;;;;;;;;;;5090627;28;20046;-66
2022/09/27 02:52:27;;;;;;;3.08;0.50;;;;;;;;;;5072175;28;20058;-66
2022/09/27 02:55:07;;;;;;;2.05;0.40;;;;;;;;;;5090633;28;20125;-66
2022/09/27 02:57:33;;;;;;;4.30;0.60;;;;;;;;;;5090653;28;20379;-66
2022/09/27 03:00:19;;;;;;;2.50;0.60;;;;;;;;;;5090170;28;20040;-66
2022/09/27 03:02:54;;;;;;;6.00;0.47;;;;;;;;;;5091726;28;20217;-66
2022/09/27 03:05:21;;;;;;;6.22;0.70;;;;;;;;;;5110662;28;20047;-66
2022/09/27 03:07:48;;;;;;;3.95;0.60;;;;;;;;;;5114424;28;20362;-66
2022/09/27 03:10:22;;;;;;;2.97;0.40;;;;;;;;;;5114575;28;20055;-66
2022/09/27 03:12:49;;;;;;;3.10;0.60;;;;;;;;;;5114894;28;20078;-66
2022/09/27 03:15:15;;;;;;;3.85;0.40;;;;;;;;;;5114409;28;20043;-66
2022/09/27 03:17:41;;;;;;;2.88;0.75;;;;;;;;;;5096070;28;20046;-66
2022/09/27 03:20:07;;;;;;;4.30;0.57;;;;;;;;;;5114715;28;20032;-66
2022/09/27 03:22:34;;;;;;;5.13;0.43;;;;;;;;;;5114363;28;20093;-66
2022/09/27 03:25:00;;;;;;;5.88;0.50;;;;;;;;;;5114593;28;20100;-66
2022/09/27 03:27:26;;;;;;;5.53;0.63;;;;;;;;;;5114461;28;20125;-66
2022/09/27 03:29:52;;;;;;;3.90;0.57;;;;;;;;;;5114099;28;20036;-66
2022/09/27 03:32:18;;;;;;;3.28;0.50;;;;;;;;;;5114388;28;20043;-66
2022/09/27 03:34:44;;;;;;;2.38;0.40;;;;;;;;;;5114187;28;20288;-66
2022/09/27 03:37:10;;;;;;;2.15;0.40;;;;;;;;;;5112586;28;20047;-66
2022/09/27 03:39:36;;;;;;;6.50;0.90;;;;;;;;;;5113849;28;20126;-66
2022/09/27 03:42:02;;;;;;;5.45;0.75;;;;;;;;;;5114000;28;20127;-66
2022/09/27 03:44:28;;;;;;;3.38;0.52;;;;;;;;;;5113792;28;20044;-66
2022/09/27 03:46:54;;;;;;;1.25;0.68;;;;;;;;;;5114218;28;20502;-66
2022/09/27 03:49:20;;;;;;;3.70;0.43;;;;;;;;;;5112507;28;20390;-66
2022/09/27 03:51:46;;;;;;;7.85;0.75;;;;;;;;;;5113820;28;20047;-66
2022/09/27 03:54:12;;;;;;;2.88;0.50;;;;;;;;;;5114137;28;20042;-66
2022/09/27 03:56:38;;;;;;;1.65;0.47;;;;;;;;;;5114045;28;20131;-66
2022/09/27 03:59:04;;;;;;;4.25;0.60;;;;;;;;;;5113516;28;20043;-66
2022/09/27 04:01:31;;;;;;;4.82;0.80;;;;;;;;;;5113868;28;20150;-66
2022/09/27 04:03:57;;;;;;;4.18;0.98;;;;;;;;;;5113885;28;20187;-66
2022/09/27 04:06:23;;;;;;;3.33;0.55;;;;;;;;;;5095143;28;20519;-66
2022/09/27 04:08:49;;;;;;;0.88;0.43;;;;;;;;;;5113211;28;20035;-66
2022/09/27 04:11:16;;;;;;;6.45;0.70;;;;;;;;;;5095245;28;20044;-66
2022/09/27 04:13:43;;;;;;;4.05;0.55;;;;;;;;;;5112640;28;20067;-66
2022/09/27 04:16:10;;;;;;;1.98;0.63;;;;;;;;;;5113293;28;20052;-66
2022/09/27 04:18:36;;;;;;;5.53;0.65;;;;;;;;;;5113633;28;20039;-66
2022/09/27 04:21:02;;;;;;;5.63;0.50;;;;;;;;;;5113363;28;20485;-66
2022/09/27 04:23:28;;;;;;;2.60;0.50;;;;;;;;;;5113669;28;20039;-66
2022/09/27 04:25:54;;;;;;;2.72;0.57;;;;;;;;;;5113454;28;20038;-66
2022/09/27 04:28:21;;;;;;;3.30;0.40;;;;;;;;;;5112597;28;20051;-66
2022/09/27 04:30:47;;;;;;;2.83;0.40;;;;;;;;;;5113112;28;20046;-66
2022/09/27 04:33:14;;;;;;;2.97;0.40;;;;;;;;;;5113429;28;20123;-66
2022/09/27 04:38:25;;;;;;;4.53;0.68;;;;;;;;;;5113030;28;20048;-66
2022/09/27 04:40:51;;;;;;;3.70;1.35;;;;;;;;;;5112910;28;20043;-66
2022/09/27 04:43:17;;;;;;;6.05;3.17;;;;;;;;;;5112165;28;20046;-66
2022/09/27 04:45:43;;;;;;;2.45;0.57;;;;;;;;;;5112741;28;20047;-66
2022/09/27 04:48:10;;;;;;;3.42;0.40;;;;;;;;;;5113098;28;20039;-66
2022/09/27 04:50:36;;;;;;;4.00;0.60;;;;;;;;;;5112490;28;20103;-66
2022/09/27 04:53:02;;;;;;;3.95;1.58;;;;;;;;;;5112561;28;20047;-66
2022/09/27 04:55:28;;;;;;;3.53;1.17;;;;;;;;;;5111367;28;20089;-66
2022/09/27 04:57:55;;;;;;;4.80;0.50;;;;;;;;;;5111788;28;20086;-66
2022/09/27 05:00:21;;;;;;;2.33;0.40;;;;;;;;;;5112513;28;20054;-66
2022/09/27 05:02:47;;;;;;;3.38;0.57;;;;;;;;;;5112300;28;20135;-66
2022/09/27 05:05:16;;;;;;;6.35;0.73;;;;;;;;;;5111612;28;20039;-66
2022/09/27 05:07:42;;;;;;;2.38;0.52;;;;;;;;;;5105709;28;20036;-65
2022/09/27 05:10:09;;;;;;;4.10;0.30;;;;;;;;;;5118177;27;20431;-65
2022/09/27 05:12:35;;;;;;;3.63;0.63;;;;;;;;;;5111725;28;20080;-65
2022/09/27 05:15:01;;;;;;;5.53;1.08;;;;;;;;;;5093376;28;20051;-65
2022/09/27 05:17:27;;;;;;;5.38;0.70;;;;;;;;;;5112272;28;20051;-65
2022/09/27 05:19:53;;;;;;;2.50;0.50;;;;;;;;;;5111327;28;20454;-65
2022/09/27 05:22:19;;;;;;;1.95;0.40;;;;;;;;;;5112168;28;20656;-65
2022/09/27 05:24:46;;;;;;;4.55;0.60;;;;;;;;;;5111601;28;20428;-65
2022/09/27 05:27:19;;;;;;;3.20;0.82;;;;;;;;;;5111118;28;20402;-65
2022/09/27 05:29:45;;;;;;;3.63;1.00;;;;;;;;;;5111594;28;20043;-65
2022/09/27 05:32:11;;;;;;;3.80;0.80;;;;;;;;;;5111583;28;20055;-65
2022/09/27 05:34:37;;;;;;;7.55;1.02;;;;;;;;;;5111548;28;20388;-65
2022/09/27 05:37:03;;;;;;;4.20;1.30;;;;;;;;;;5111151;28;20109;-65
2022/09/27 05:39:29;;;;;;;4.88;1.40;;;;;;;;;;5111660;28;20039;-65
2022/09/27 05:41:56;;;;;;;3.05;0.73;;;;;;;;;;5111088;28;20047;-65
2022/09/27 05:44:22;;;;;;;4.38;0.88;;;;;;;;;;5111521;28;20043;-65
2022/09/27 05:46:48;;;;;;;5.75;0.70;;;;;;;;;;5111030;28;20046;-65
2022/09/27 05:49:14;;;;;;;3.78;1.00;;;;;;;;;;5110985;28;20057;-65
2022/09/27 05:51:41;;;;;;;7.32;0.95;;;;;;;;;;5111406;28;20039;-66
2022/09/27 05:54:07;;;;;;;9.95;1.48;;;;;;;;;;5111261;28;20113;-65
2022/09/27 05:56:33;;;;;;;2.80;0.60;;;;;;;;;;5110427;28;20067;-65
2022/09/27 05:58:59;;;;;;;2.58;0.60;;;;;;;;;;5110640;28;20046;-65
2022/09/27 06:01:26;;;;;;;4.80;0.80;;;;;;;;;;5111545;28;20036;-65
2022/09/27 06:03:53;;;;;;;4.70;0.88;;;;;;;;;;5107068;28;20125;-65
2022/09/27 06:06:21;;;;;;;2.03;0.73;;;;;;;;;;5110431;28;20043;-65
2022/09/27 06:08:48;;;;;;;6.03;1.40;;;;;;;;;;5114247;27;20066;-65
2022/09/27 06:11:14;;;;;;;5.43;0.70;;;;;;;;;;5092470;28;20047;-65
2022/09/27 06:13:40;;;;;;;2.60;0.85;;;;;;;;;;5105888;28;20047;-65
2022/09/27 06:16:08;;;;;;;5.85;1.15;;;;;;;;;;5110444;28;20036;-66
2022/09/27 06:18:34;;;;;;;4.88;0.80;;;;;;;;;;5089934;28;20393;-66
2022/09/27 06:21:00;;;;;;;4.55;1.20;;;;;;;;;;5086288;28;20039;-65
2022/09/27 06:23:26;;;;;;;4.53;1.08;;;;;;;;;;5115216;27;20127;-65
2022/09/27 06:25:53;;;;;;;8.52;1.33;;;;;;;;;;5110898;27;20042;-66
2022/09/27 06:28:19;;;;;;;6.03;1.13;;;;;;;;;;5109753;28;20035;-65
2022/09/27 06:30:46;;;;;;;9.50;1.30;;;;;;;;;;5109883;28;20071;-66
2022/09/27 06:33:13;;;;;;;4.72;1.40;;;;;;;;;;5102335;28;20097;-66
2022/09/27 06:35:41;;;;;;;4.45;1.10;;;;;;;;;;5106996;28;20126;-65
2022/09/27 06:38:08;;;;;;;2.88;0.90;;;;;;;;;;5107788;28;20052;-66
2022/09/27 06:40:34;;;;;;;5.95;1.00;;;;;;;;;;5106088;28;20054;-64
2022/09/27 06:43:08;;;;;;;2.75;0.77;;;;;;;;;;5108346;28;20048;-65
2022/09/27 06:45:34;;;;;;;2.25;0.95;;;;;;;;;;5108746;28;20447;-65
2022/09/27 06:48:08;;;;;;;5.75;0.90;;;;;;;;;;5085217;28;20067;-65
2022/09/27 06:50:36;;;;;;;4.30;1.17;;;;;;;;;;5109072;28;20036;-67
2022/09/27 06:53:04;;;;;;;2.00;0.93;;;;;;;;;;5111695;28;20114;-64
2022/09/27 06:55:30;;;;;;;3.35;1.23;;;;;;;;;;5109497;28;20044;-63
2022/09/27 07:00:42;;;;;;;6.20;1.60;;;;;;;;;;5108341;28;20097;-66
2022/09/27 07:03:10;;;;;;;8.10;1.45;;;;;;;;;;5119304;28;20036;-65
2022/09/27 07:05:36;;;;;;;4.50;1.20;;;;;;;;;;5111807;28;20500;-65
2022/09/27 07:08:03;;;;;;;4.15;1.00;;;;;;;;;;5108340;28;20607;-66
2022/09/27 07:10:32;;;;;;;4.38;1.30;;;;;;;;;;5109527;28;20052;-64
2022/09/27 07:13:02;;;;;;;6.22;1.05;;;;;;;;;;5097501;28;20468;-67
2022/09/27 07:15:28;;;;;;;3.30;0.70;;;;;;;;;;5114357;28;20684;-63
2022/09/27 07:17:58;;;;;;;6.85;2.05;;;;;;;;;;5110210;28;20071;-68
2022/09/27 07:20:30;;;;;;;9.30;1.30;;;;;;;;;;5084716;28;21469;-67
2022/09/27 07:22:56;;;;;;;;;;;;;;;;;;5096944;28;20058;-66
2022/09/27 07:25:23;;;;;;;2.05;0.82;;;;;;;;;;5113676;28;19994;-67
2022/09/27 07:27:49;;;;;;;3.30;0.82;;;;;;;;;;5089956;28;20082;-67
2022/09/27 07:30:16;;;;;;;2.58;1.02;;;;;;;;;;5091681;28;20040;-69
2022/09/27 07:32:43;;;;;;;4.60;1.02;;;;;;;;;;5083911;28;20044;-69
2022/09/27 07:35:09;;;;;;;5.13;1.23;;;;;;;;;;5085825;28;20054;-70
2022/09/27 07:37:36;;;;;;;3.35;0.70;;;;;;;;;;5089464;28;20056;-68
2022/09/27 07:40:05;;;;;;;4.55;0.77;;;;;;;;;;5088266;28;20123;-68
2022/09/27 07:42:31;;;;;;;3.13;0.60;;;;;;;;;;5097584;28;20035;-69
2022/09/27 07:44:57;;;;;;;6.28;0.90;;;;;;;;;;5095646;28;20501;-70
2022/09/27 07:47:24;;;;;;;2.50;0.70;;;;;;;;;;5087343;28;20050;-69
2022/09/27 07:49:51;;;;;;;2.85;0.63;;;;;;;;;;5099799;28;20043;-67
2022/09/27 07:52:18;;;;;;;5.35;0.75;;;;;;;;;;5089517;27;20085;-72
2022/09/27 07:54:44;;;;;;;4.60;1.08;;;;;;;;;;5087411;28;20666;-69
2022/09/27 07:57:10;;;;;;;4.32;0.70;;;;;;;;;;5082887;28;20086;-64
2022/09/27 07:59:36;;;;;;;4.35;1.15;;;;;;;;;;5111015;28;20454;-63
2022/09/27 08:02:02;;;;;;;2.85;0.70;;;;;;;;;;5108906;28;20090;-63
2022/09/27 08:04:28;;;;;;;3.47;0.88;;;;;;;;;;5111028;27;20138;-61
2022/09/27 08:06:55;;;;;;;3.03;0.50;;;;;;;;;;5109125;27;20119;-64
2022/09/27 08:09:21;;;;;;;4.45;0.65;;;;;;;;;;5108102;27;20047;-64
2022/09/27 08:11:47;;;;;;;3.25;0.90;;;;;;;;;;5103828;28;20050;-65
2022/09/27 08:14:13;;;;;;;1.58;0.40;;;;;;;;;;5109755;28;20048;-63
2022/09/27 08:16:40;;;;;;;5.10;0.68;;;;;;;;;;5086696;28;20837;-63
2022/09/27 08:19:06;;;;;;;3.90;0.65;;;;;;;;;;5110370;28;20100;-63
2022/09/27 08:21:32;;;;;;;3.35;0.80;;;;;;;;;;5116060;27;20047;-62
2022/09/27 08:23:59;;;;;;;6.18;0.75;;;;;;;;;;5113665;27;20064;-62
2022/09/27 08:26:27;;;;;;;4.55;0.68;;;;;;;;;;5110524;27;20309;-62
2022/09/27 08:28:53;;;;;;;1.25;0.43;;;;;;;;;;5111852;27;20053;-64
2022/09/27 08:31:19;;;;;;;3.58;0.50;;;;;;;;;;5108288;27;20126;-62
2022/09/27 08:33:52;;;;;;;1.30;0.70;;;;;;;;;;5104249;28;20074;-62
2022/09/27 08:36:18;;;;;;;;;;;;;;;;;;5098664;28;20039;-64
2022/09/27 08:38:48;;;;;;;1.90;0.50;;;;;;;;;;5110409;28;20135;-65
2022/09/27 08:41:21;;;;;;;3.08;0.70;;;;;;;;;;5107179;28;20463;-65
2022/09/27 08:43:50;;;;;;;4.22;0.60;;;;;;;;;;5110221;27;20080;-64
2022/09/27 08:46:23;;;;;;;6.90;0.70;;;;;;;;;;5099371;27;20048;-64
2022/09/27 08:48:51;;;;;;;1.85;0.50;;;;;;;;;;5104564;28;20040;-65
2022/09/27 08:51:21;;;;;;;5.43;0.70;;;;;;;;;;5087447;28;20051;-65
2022/09/27 08:53:55;;;;;;;2.40;0.63;;;;;;;;;;5104301;28;20089;-63
2022/09/27 08:56:23;;;;;;;6.82;0.75;;;;;;;;;;5109255;27;20031;-61
2022/09/27 08:59:13;;;;;;;1.65;0.57;;;;;;;;;;5108407;28;20043;-63
2022/09/27 09:01:40;;;;;;;2.95;0.60;;;;;;;;;;5107085;27;20040;-65
2022/09/27 09:04:07;;;;;;;2.17;0.55;;;;;;;;;;5092523;28;20051;-63
2022/09/27 09:06:33;;;;;;;4.68;0.93;;;;;;;;;;5091046;28;20028;-65
2022/09/27 09:09:05;;;;;;;2.25;0.60;;;;;;;;;;5109129;28;20655;-64
2022/09/27 09:14:38;;;;;;;2.67;0.47;;;;;;;;;;5077938;28;20130;-65
2022/09/27 09:17:14;;;;;;;3.00;0.50;;;;;;;;;;5110830;27;20177;-63
2022/09/27 09:19:53;;;;;;;3.08;0.50;;;;;;;;;;5109622;27;20092;-64
2022/09/27 09:22:28;;;;;;;4.90;0.63;;;;;;;;;;5109087;27;20035;-62
2022/09/27 09:25:06;;;;;;;3.42;0.52;;;;;;;;;;5109378;28;20032;-62
2022/09/27 09:27:45;;;;;;;1.75;0.60;;;;;;;;;;5108887;28;20458;-63
2022/09/27 09:30:31;;;;;;;2.65;0.50;;;;;;;;;;5096964;28;20042;-64
2022/09/27 09:33:09;;;;;;;2.10;0.60;;;;;;;;;;5100936;28;20047;-64
2022/09/27 09:35:38;;;;;;;2.92;0.52;;;;;;;;;;5101827;28;20039;-61
2022/09/27 09:38:09;;;;;;;2.08;0.57;;;;;;;;;;5107522;28;20069;-62
2022/09/27 09:40:40;;;;;;;3.95;0.63;;;;;;;;;;5108824;28;20035;-63
2022/09/27 09:43:22;;;;;;;2.67;0.55;;;;;;;;;;5109529;28;20443;-63
2022/09/27 09:45:50;;;;;;;6.00;0.60;;;;;;;;;;5102532;28;20158;-62
2022/09/27 09:48:35;;;;;;;3.60;0.43;;;;;;;;;;5103790;28;20477;-62
2022/09/27 09:51:06;;;;;;;0.75;0.28;;;;;;;;;;5098656;27;20474;-63
2022/09/27 09:53:32;;;;;;;4.60;0.50;;;;;;;;;;5100660;28;20052;-63
2022/09/27 09:56:13;;;;;;;2.08;0.40;;;;;;;;;;5085621;28;20035;-64
2022/09/27 09:58:42;;;;;;;7.78;0.60;;;;;;;;;;5106948;28;20132;-63
2022/09/27 10:01:13;;;;;;;4.50;0.52;;;;;;;;;;5084262;28;20032;-64
2022/09/27 10:03:39;;;;;;;0.55;0.40;;;;;;;;;;5095605;28;20080;-62
2022/09/27 10:06:06;;;;;;;0.88;0.47;;;;;;;;;;5108546;28;20665;-63
2022/09/27 10:08:32;;;;;;;3.42;0.50;;;;;;;;;;5102038;28;20042;-64
2022/09/27 10:10:58;;;;;;;5.63;0.70;;;;;;;;;;5101339;28;20055;-64
2022/09/27 10:13:24;;;;;;;7.18;0.50;;;;;;;;;;5099942;28;20094;-63
2022/09/27 10:16:09;;;;;;;2.53;0.50;;;;;;;;;;5103671;28;20036;-63
2022/09/27 10:18:40;;;;;;;2.00;0.40;;;;;;;;;;5105119;28;20050;-63
2022/09/27 10:21:11;;;;;;;3.60;0.52;;;;;;;;;;5109381;28;20048;-62
2022/09/27 10:23:57;;;;;;;2.30;0.50;;;;;;;;;;5111402;27;20039;-63
2022/09/27 10:26:23;;;;;;;3.95;0.52;;;;;;;;;;5108751;28;20115;-64
2022/09/27 10:28:51;;;;;;;3.78;0.30;;;;;;;;;;5117282;27;20148;-63
2022/09/27 10:31:19;;;;;;;2.45;0.40;;;;;;;;;;5118495;27;20047;-64
2022/09/27 10:34:11;;;;;;;4.03;0.50;;;;;;;;;;5088143;28;20043;-65
2022/09/27 10:36:37;;;;;;;3.03;0.38;;;;;;;;;;5104510;28;20134;-63
2022/09/27 10:39:05;;;;;;;3.90;0.50;;;;;;;;;;5106143;28;20067;-64
2022/09/27 10:41:31;;;;;;;1.58;0.35;;;;;;;;;;5109179;28;20093;-64
2022/09/27 10:44:17;;;;;;;2.35;0.45;;;;;;;;;;5115983;28;20035;-64
2022/09/27 10:46:44;;;;;;;4.63;0.55;;;;;;;;;;5112844;28;20093;-64
2022/09/27 10:49:11;;;;;;;4.28;0.63;;;;;;;;;;5108602;28;20044;-64
2022/09/27 10:51:38;;;;;;;2.63;0.30;;;;;;;;;;5109822;28;20042;-64
2022/09/27 10:54:04;;;;;;;2.70;0.40;;;;;;;;;;5108897;28;20505;-64
2022/09/27 10:56:32;;;;;;;3.75;0.30;;;;;;;;;;5108344;28;20039;-64
2022/09/27 10:59:02;;;;;;;2.05;0.40;;;;;;;;;;5108897;28;20123;-63
2022/09/27 11:01:39;;;;;;;2.40;0.50;;;;;;;;;;5107840;28;20040;-66
2022/09/27 11:04:05;;;;;;;4.13;0.50;;;;;;;;;;5108555;28;20055;-65
2022/09/27 11:06:36;;;;;;;1.58;0.40;;;;;;;;;;5108559;28;20122;-66
2022/09/27 11:09:25;;;;;;;1.77;0.50;;;;;;;;;;5107519;28;20210;-67
2022/09/27 11:11:53;;;;;;;4.88;0.50;;;;;;;;;;5111509;28;20050;-65
2022/09/27 11:14:24;;;;;;;2.85;0.50;;;;;;;;;;5119996;28;20039;-66
2022/09/27 11:17:03;;;;;;;2.03;0.43;;;;;;;;;;5120270;28;20571;-66
2022/09/27 11:19:48;;;;;;;1.85;0.47;;;;;;;;;;5117830;28;20039;-66
2022/09/27 11:22:17;;;;;;;1.77;0.30;;;;;;;;;;5116068;28;20058;-67
2022/09/27 11:24:49;;;;;;;1.92;0.30;;;;;;;;;;5122338;27;20027;-67
2022/09/27 11:27:33;;;;;;;3.22;0.47;;;;;;;;;;5113440;27;20075;-66
2022/09/27 11:30:08;;;;;;;2.30;0.40;;;;;;;;;;5105698;27;20158;-67
2022/09/27 11:32:44;;;;;;;1.85;0.30;;;;;;;;;;5113969;27;20044;-68
2022/09/27 11:35:22;;;;;;;3.05;0.30;;;;;;;;;;5106914;27;20066;-68
2022/09/27 11:38:02;;;;;;;3.25;0.38;;;;;;;;;;5110619;28;20031;-68
2022/09/27 11:40:28;;;;;;;1.13;0.28;;;;;;;;;;5116770;27;20035;-67
2022/09/27 11:43:03;;;;;;;1.75;0.32;;;;;;;;;;5112883;27;20044;-67
2022/09/27 11:45:29;;;;;;;1.98;0.40;;;;;;;;;;5101637;27;20039;-67
2022/09/27 11:48:10;;;;;;;2.28;0.20;;;;;;;;;;5111559;27;20369;-65
2022/09/27 11:50:52;;;;;;;0.85;0.20;;;;;;;;;;5106962;28;20032;-66
2022/09/27 11:53:22;;;;;;;1.88;0.28;;;;;;;;;;5093552;28;20047;-66
2022/09/27 11:56:03;;;;;;;1.67;0.30;;;;;;;;;;5106387;27;20047;-65
2022/09/27 11:58:44;;;;;;;2.33;0.50;;;;;;;;;;5118245;27;20043;-66
2022/09/27 12:01:22;;;;;;;2.05;0.25;;;;;;;;;;5116438;27;20103;-65
2022/09/27 12:03:59;;;;;;;4.93;0.52;;;;;;;;;;5113315;27;20043;-65
2022/09/27 12:06:37;;;;;;;0.85;0.22;;;;;;;;;;5115189;27;20039;-65
2022/09/27 12:09:10;;;;;;;1.45;0.40;;;;;;;;;;5116866;27;20047;-63
2022/09/27 12:11:46;;;;;;;2.10;0.28;;;;;;;;;;5113650;27;20097;-62
2022/09/27 12:14:31;;;;;;;1.42;0.35;;;;;;;;;;5111003;28;20047;-62
2022/09/27 12:16:58;;;;;;;0.20;0.20;;;;;;;;;;5116343;27;20032;-62
2022/09/27 12:19:26;;;;;;;0.80;0.25;;;;;;;;;;5119391;27;20453;-62
2022/09/27 12:21:54;;;;;;;0.25;0.20;;;;;;;;;;5103397;28;20454;-65
2022/09/27 12:24:21;;;;;;;2.55;0.25;;;;;;;;;;5108043;28;20043;-64
2022/09/27 12:26:49;;;;;;;3.83;0.20;;;;;;;;;;5113894;27;20031;-65
2022/09/27 12:29:45;;;;;;;0.90;0.28;;;;;;;;;;5114436;27;20070;-63
2022/09/27 12:32:21;;;;;;;0.82;0.35;;;;;;;;;;5067657;28;20039;-66
2022/09/27 12:35:00;;;;;;;0.63;0.30;;;;;;;;;;5108463;28;20351;-62
2022/09/27 12:37:49;;;;;;;4.28;0.50;;;;;;;;;;5109147;27;20050;-62
2022/09/27 12:40:18;;;;;;;2.40;0.38;;;;;;;;;;5109524;28;20054;-62
2022/09/27 12:42:51;;;;;;;4.55;0.70;;;;;;;;;;5119737;27;20476;-63
2022/09/27 12:45:21;;;;;;;2.78;0.50;;;;;;;;;;5107976;28;20101;-65
2022/09/27 12:48:02;;;;;;;3.83;0.55;;;;;;;;;;5089486;28;20779;-65
2022/09/27 12:50:36;;;;;;;1.60;0.75;;;;;;;;;;5108169;27;20465;-64
2022/09/27 12:53:13;;;;;;;3.20;0.30;;;;;;;;;;5098843;28;20059;-63
2022/09/27 12:55:46;;;;;;;2.42;0.52;;;;;;;;;;5105263;27;20075;-67
2022/09/27 12:58:12;;;;;;;3.05;0.70;;;;;;;;;;5097795;28;20036;-65
2022/09/27 13:00:45;;;;;;;1.83;0.40;;;;;;;;;;5109591;27;20044;-65
2022/09/27 13:03:23;;;;;;;2.47;0.55;;;;;;;;;;5106502;27;20043;-65
2022/09/27 13:05:52;;;;;;;4.50;0.50;;;;;;;;;;5072778;28;20480;-65
2022/09/27 13:08:27;;;;;;;4.18;0.50;;;;;;;;;;5108322;28;20054;-63
2022/09/27 13:11:04;;;;;;;3.92;0.60;;;;;;;;;;5104399;28;20075;-62
2022/09/27 13:13:31;;;;;;;1.05;0.22;;;;;;;;;;5101140;28;20097;-63
2022/09/27 13:15:58;;;;;;;2.25;0.40;;;;;;;;;;5110914;28;20040;-63
2022/09/27 13:18:37;;;;;;;2.95;0.40;;;;;;;;;;5103391;27;20036;-64
2022/09/27 13:21:07;;;;;;;1.38;0.40;;;;;;;;;;5104378;27;20400;-64
2022/09/27 13:23:39;;;;;;;3.35;0.93;;;;;;;;;;5089209;28;20044;-65
2022/09/27 13:26:05;;;;;;;;;;;;;;;;;;5111318;27;20073;-63
2022/09/27 13:28:32;;;;;;;4.68;0.82;;;;;;;;;;5107318;28;20323;-63
2022/09/27 13:30:58;;;;;;;2.42;0.50;;;;;;;;;;5105506;27;20031;-63
2022/09/27 13:33:42;;;;;;;3.70;0.40;;;;;;;;;;5110399;27;20389;-63
2022/09/27 13:36:21;;;;;;;2.10;0.50;;;;;;;;;;5102769;27;20039;-63
2022/09/27 13:39:09;;;;;;;0.82;0.30;;;;;;;;;;5096207;28;20123;-66
2022/09/27 13:41:35;;;;;;;3.33;0.40;;;;;;;;;;5101090;27;20118;-66
2022/09/27 13:44:21;;;;;;;3.13;0.57;;;;;;;;;;5086522;28;20071;-65
2022/09/27 13:46:59;;;;;;;4.38;0.50;;;;;;;;;;5110544;28;20044;-66
2022/09/27 13:49:28;;;;;;;2.05;0.30;;;;;;;;;;5106564;28;20032;-65
2022/09/27 13:51:57;;;;;;;9.20;0.55;;;;;;;;;;5113418;27;20046;-66
2022/09/27 13:54:40;;;;;;;1.70;0.40;;;;;;;;;;5110816;28;20035;-65
2022/09/27 13:57:26;;;;;;;0.98;0.40;;;;;;;;;;5110308;28;20375;-66
2022/09/27 13:59:54;;;;;;;2.45;0.35;;;;;;;;;;5068975;28;20140;-66
2022/09/27 14:02:26;;;;;;;0.95;0.20;;;;;;;;;;5110426;28;20160;-64
2022/09/27 14:04:54;;;;;;;1.02;0.45;;;;;;;;;;5110369;28;20047;-64
2022/09/27 14:07:25;;;;;;;1.98;0.30;;;;;;;;;;5110156;28;20150;-64
2022/09/27 14:09:57;;;;;;;3.03;0.40;;;;;;;;;;5110389;28;20062;-64
2022/09/27 14:12:23;;;;;;;;;;;;;;;;;;5115431;27;20481;-64
2022/09/27 14:14:50;;;;;;;1.77;0.20;;;;;;;;;;5116711;27;19920;-64
2022/09/27 14:17:16;;;;;;;0.55;0.30;;;;;;;;;;5110230;28;20085;-63
2022/09/27 14:19:51;;;;;;;1.70;0.30;;;;;;;;;;5109209;28;20040;-66
2022/09/27 14:22:18;;;;;;;0.80;0.30;;;;;;;;;;5110555;28;20448;-66
2022/09/27 14:24:49;;;;;;;3.50;0.55;;;;;;;;;;5110198;27;20222;-66
2022/09/27 14:27:23;;;;;;;0.90;0.20;;;;;;;;;;5125955;27;20031;-65
2022/09/27 14:29:52;;;;;;;4.32;0.82;;;;;;;;;;5110305;28;20470;-65
2022/09/27 14:32:23;;;;;;;1.48;0.40;;;;;;;;;;5110227;28;20462;-65
2022/09/27 14:37:57;;;;;;;1.33;0.57;;;;;;;;;;5090273;28;20208;-62
2022/09/27 14:40:23;;;;;;;2.25;0.43;;;;;;;;;;5099359;28;20039;-63
2022/09/27 14:42:57;;;;;;;1.27;0.30;;;;;;;;;;5110291;28;20939;-63
2022/09/27 14:45:29;;;;;;;0.60;0.30;;;;;;;;;;5110211;28;20559;-64
2022/09/27 14:47:55;;;;;;;4.13;0.50;;;;;;;;;;5110019;28;20396;-65
2022/09/27 14:50:30;;;;;;;1.50;0.30;;;;;;;;;;5110283;28;20039;-65
2022/09/27 14:52:59;;;;;;;1.05;0.60;;;;;;;;;;5091764;28;20044;-64
2022/09/27 14:55:29;;;;;;;1.10;0.50;;;;;;;;;;5110926;28;20486;-64
2022/09/27 14:57:59;;;;;;;3.08;0.60;;;;;;;;;;5109012;28;20478;-65
2022/09/27 15:00:30;;;;;;;0.77;0.35;;;;;;;;;;5114937;28;20089;-64
2022/09/27 15:02:58;;;;;;;1.50;0.40;;;;;;;;;;5114604;28;20073;-64
2022/09/27 15:05:28;;;;;;;2.00;0.68;;;;;;;;;;5114381;28;20040;-64
2022/09/27 15:07:55;;;;;;;4.72;1.00;;;;;;;;;;5114624;28;20515;-64
2022/09/27 15:10:25;;;;;;;3.72;0.70;;;;;;;;;;5114684;28;20052;-64
2022/09/27 15:12:53;;;;;;;2.80;0.60;;;;;;;;;;5114798;28;20617;-64